Terminal Aerodrome Forecast
Issued by NWS

Home | Current Version | Previous Version | Graphics & Text | Print | Product List | Glossary On
Versions: 1 2 3 4 5 6 7 8 9 10 11 12 13 14 15 16 17
000
FTUS43 KTOP 261700
TAFFOE
TAF
KFOE 261729Z 2618/2718 35010KT P6SM FEW040 SCT110
     FM270000 02006KT P6SM OVC080
     FM270300 03009KT P6SM -SHRA BKN023
     FM270600 01007KT 5SM -RA BR OVC012
     FM270900 36006KT 6SM BR BKN010=

USA.gov is the U.S. government's official web portal to all federal, state and local government web resources and services.